createdAt,value
2022-12-06T00:00:43.446Z,4.64
2022-12-06T00:04:46.492Z,4.48
2022-12-06T00:08:48.572Z,4.72
2022-12-06T00:12:50.203Z,4.72
2022-12-06T00:16:52.122Z,4.82
2022-12-06T00:20:53.667Z,4.79
2022-12-06T00:24:55.084Z,4.77
2022-12-06T00:28:59.545Z,4.73
2022-12-06T00:33:00.937Z,4.73
2022-12-06T00:37:02.356Z,4.88
2022-12-06T00:41:06.907Z,4.88
2022-12-06T00:45:08.765Z,4.92
2022-12-06T00:49:12.519Z,4.93
2022-12-06T00:53:14.208Z,4.96
2022-12-06T00:57:15.839Z,4.80
2022-12-06T01:01:21.313Z,4.82
2022-12-06T01:05:22.795Z,4.99
2022-12-06T01:09:24.217Z,4.99
2022-12-06T01:13:25.750Z,4.87
2022-12-06T01:17:27.180Z,4.96
2022-12-06T01:21:29.751Z,4.99
2022-12-06T01:25:35.739Z,4.59
2022-12-06T01:29:37.929Z,4.97
2022-12-06T01:33:39.419Z,5.09
2022-12-06T01:37:41.086Z,4.95
2022-12-06T01:41:42.490Z,5.04
2022-12-06T01:45:44.472Z,5.02
2022-12-06T01:50:09.281Z,4.79
2022-12-06T01:54:14.794Z,4.85
2022-12-06T01:58:20.091Z,4.79
2022-12-06T02:02:21.716Z,4.91
2022-12-06T02:06:23.483Z,5.09
2022-12-06T02:10:24.898Z,5.15
2022-12-06T02:14:31.700Z,4.96
2022-12-06T02:18:56.261Z,5.03
2022-12-06T02:23:12.397Z,4.90
2022-12-06T02:27:33.991Z,5.07
2022-12-06T02:31:46.257Z,5.14
2022-12-06T02:36:25.351Z,5.16
2022-12-06T02:40:36.355Z,5.28
2022-12-06T02:44:59.843Z,5.12
2022-12-06T02:49:04.079Z,5.17
2022-12-06T02:53:10.671Z,5.18
2022-12-06T02:57:12.169Z,5.25
2022-12-06T03:01:32.332Z,5.24
2022-12-06T03:05:51.137Z,5.24
2022-12-06T03:10:26.667Z,5.19
2022-12-06T03:14:38.401Z,5.32
2022-12-06T03:18:47.661Z,5.46
2022-12-06T03:22:54.819Z,5.40
2022-12-06T03:26:59.851Z,5.30
2022-12-06T03:31:04.234Z,5.50
2022-12-06T03:35:09.957Z,5.17
2022-12-06T03:39:15.156Z,5.30
2022-12-06T03:43:16.990Z,5.52
2022-12-06T03:47:24.853Z,5.72
2022-12-06T03:51:30.402Z,5.61
2022-12-06T03:55:31.842Z,5.66
2022-12-06T03:59:33.499Z,5.66
2022-12-06T04:03:35.690Z,5.49
2022-12-06T04:07:37.215Z,5.58
2022-12-06T04:11:38.644Z,5.66
2022-12-06T04:15:40.097Z,5.55
2022-12-06T04:19:41.765Z,5.76
2022-12-06T04:23:46.403Z,5.72
2022-12-06T04:28:06.221Z,5.76
2022-12-06T04:32:26.397Z,5.58
2022-12-06T04:36:46.290Z,5.74
2022-12-06T04:40:48.240Z,5.83
2022-12-06T04:44:49.864Z,5.92
2022-12-06T04:48:52.295Z,5.98
2022-12-06T04:52:53.706Z,5.94
2022-12-06T04:56:55.387Z,6.08
2022-12-06T05:00:56.855Z,6.19
2022-12-06T05:04:58.523Z,6.23
2022-12-06T05:08:59.936Z,6.25
2022-12-06T05:13:01.612Z,6.11
2022-12-06T05:17:03.318Z,6.17
2022-12-06T05:21:07.401Z,6.19
2022-12-06T05:25:09.093Z,6.20
2022-12-06T05:29:10.594Z,6.11
2022-12-06T05:33:12.027Z,5.99
2022-12-06T05:37:13.472Z,6.44
2022-12-06T05:41:15.397Z,6.53
2022-12-06T05:45:16.891Z,6.59
2022-12-06T05:49:18.408Z,6.63
2022-12-06T05:53:20.565Z,6.70
2022-12-06T05:57:22.283Z,6.73
2022-12-06T06:01:23.810Z,6.49
2022-12-06T06:05:25.393Z,6.77
2022-12-06T06:09:27.462Z,6.88
2022-12-06T06:13:28.909Z,6.85
2022-12-06T06:17:30.364Z,6.85
2022-12-06T06:21:31.790Z,6.91
2022-12-06T06:25:33.191Z,6.78
2022-12-06T06:29:34.808Z,6.85
2022-12-06T06:33:36.297Z,6.90
2022-12-06T06:37:37.731Z,6.63
2022-12-06T06:41:39.246Z,6.70
2022-12-06T06:45:40.684Z,6.66
2022-12-06T06:49:42.137Z,6.74
2022-12-06T06:53:43.595Z,6.71
2022-12-06T06:57:45.060Z,6.76
2022-12-06T07:01:46.526Z,6.85
2022-12-06T07:05:55.264Z,6.67
2022-12-06T07:09:56.736Z,6.83
2022-12-06T07:13:58.219Z,6.77
2022-12-06T07:17:59.642Z,6.78
2022-12-06T07:22:01.047Z,6.81
2022-12-06T07:26:04.584Z,6.84
2022-12-06T07:30:06.929Z,6.88
2022-12-06T07:34:09.688Z,6.82
2022-12-06T07:38:11.299Z,6.80
2022-12-06T07:42:31.532Z,6.95
2022-12-06T07:46:32.989Z,7.08
2022-12-06T07:50:34.506Z,7.01
2022-12-06T07:54:36.037Z,7.04
2022-12-06T07:58:37.541Z,7.05
2022-12-06T08:02:39.444Z,7.13
2022-12-06T08:06:40.923Z,7.06
2022-12-06T08:10:43.386Z,7.18
2022-12-06T08:14:44.866Z,6.99
2022-12-06T08:18:46.618Z,7.10
2022-12-06T08:22:47.996Z,7.00
2022-12-06T08:26:50.401Z,7.01
2022-12-06T08:30:52.335Z,7.20
2022-12-06T08:34:53.785Z,7.09
2022-12-06T08:38:55.621Z,7.15
2022-12-06T08:42:57.052Z,7.14
2022-12-06T08:47:00.951Z,7.23
2022-12-06T08:51:03.130Z,7.38
2022-12-06T08:55:05.109Z,7.07
2022-12-06T08:59:07.029Z,7.07
2022-12-06T09:03:08.478Z,7.28
2022-12-06T09:07:11.813Z,7.16
2022-12-06T09:11:15.094Z,7.28
2022-12-06T09:15:16.636Z,7.19
2022-12-06T09:19:18.725Z,7.22
2022-12-06T09:23:20.151Z,7.19
2022-12-06T09:27:22.458Z,7.22
2022-12-06T09:31:24.832Z,7.54
2022-12-06T09:35:26.317Z,7.44
2022-12-06T09:39:39.188Z,7.35
2022-12-06T09:44:11.128Z,7.28
2022-12-06T09:48:25.939Z,7.41
2022-12-06T09:52:43.193Z,7.59
2022-12-06T09:56:51.304Z,7.72
2022-12-06T10:01:14.297Z,7.70
2022-12-06T13:22:38.954Z,7.23
2022-12-06T13:26:48.954Z,7.27
2022-12-06T13:30:56.354Z,7.07
2022-12-06T13:35:16.832Z,7.08
2022-12-06T13:39:31.242Z,6.79
2022-12-06T13:43:38.094Z,7.13
2022-12-06T13:47:49.414Z,7.12
2022-12-06T13:51:50.956Z,7.03
2022-12-06T13:55:59.764Z,7.03
2022-12-06T14:00:01.823Z,7.24
2022-12-06T14:04:23.927Z,7.32
2022-12-06T14:08:31.281Z,7.15
2022-12-06T14:12:33.668Z,7.30
2022-12-06T14:16:48.134Z,7.39
2022-12-06T14:20:52.291Z,7.29
2022-12-06T14:25:02.867Z,7.14
2022-12-06T14:29:04.386Z,7.17
2022-12-06T14:33:18.741Z,7.12
2022-12-06T14:37:22.178Z,7.11
2022-12-06T14:41:49.588Z,7.12
2022-12-06T14:45:53.417Z,7.18
2022-12-06T14:50:19.540Z,7.04
2022-12-06T14:54:35.145Z,7.11
2022-12-06T14:58:42.639Z,7.21
2022-12-06T15:03:01.853Z,7.17
2022-12-06T15:07:07.653Z,7.20
2022-12-06T15:11:11.751Z,7.16
2022-12-06T15:15:37.648Z,7.18
2022-12-06T15:19:46.360Z,7.20
2022-12-06T15:23:54.386Z,7.34
2022-12-06T15:27:55.814Z,7.13
2022-12-06T15:31:57.469Z,7.33
2022-12-06T15:36:01.610Z,7.17
2022-12-06T15:40:04.261Z,6.89
2022-12-06T15:44:05.968Z,6.97
2022-12-06T15:48:12.710Z,6.87
2022-12-06T15:52:17.298Z,6.94
2022-12-06T15:56:21.556Z,6.85
2022-12-06T16:00:23.149Z,6.85
2022-12-06T16:04:30.005Z,6.80
2022-12-06T16:08:31.657Z,6.95
2022-12-06T16:12:53.122Z,6.83
2022-12-06T16:16:54.622Z,7.00
2022-12-06T16:20:56.966Z,6.86
2022-12-06T17:21:17.554Z,6.58
2022-12-06T17:35:39.125Z,6.19
2022-12-06T17:39:40.713Z,5.91
2022-12-06T17:43:42.193Z,5.88
2022-12-06T17:47:43.587Z,6.00
2022-12-06T17:51:45.464Z,6.09
2022-12-06T17:55:46.890Z,5.98
2022-12-06T17:59:48.568Z,6.07
2022-12-06T18:03:54.580Z,6.13
2022-12-06T18:07:56.108Z,6.15
2022-12-06T18:11:57.596Z,6.14
2022-12-06T18:15:59.068Z,6.25
2022-12-06T18:20:00.672Z,6.18
2022-12-06T18:24:30.471Z,6.16
2022-12-06T18:28:25.391Z,6.26
2022-12-06T18:32:27.376Z,6.28
2022-12-06T18:36:30.223Z,6.15
2022-12-06T18:40:33.585Z,6.19
2022-12-06T18:44:35.021Z,6.22
2022-12-06T18:48:38.616Z,5.82
2022-12-06T18:52:40.028Z,5.81
2022-12-06T18:56:42.384Z,5.82
2022-12-06T19:00:44.094Z,5.74
2022-12-06T19:04:45.657Z,5.89
2022-12-06T19:08:47.103Z,6.17
2022-12-06T19:12:48.539Z,6.19
2022-12-06T19:16:51.702Z,6.38
2022-12-06T19:20:53.159Z,6.32
2022-12-06T19:24:54.554Z,6.31
2022-12-06T19:28:56.350Z,6.20
2022-12-06T19:32:57.819Z,6.12
2022-12-06T19:36:59.406Z,6.19
2022-12-06T19:41:05.984Z,6.10
2022-12-06T19:45:08.104Z,5.94
2022-12-06T19:49:11.385Z,6.02
2022-12-06T19:53:12.807Z,6.15
2022-12-06T19:57:14.216Z,6.05
2022-12-06T20:01:18.814Z,6.01
2022-12-06T20:05:20.279Z,6.05
2022-12-06T20:09:24.071Z,6.11
2022-12-06T20:13:25.507Z,6.18
2022-12-06T20:17:26.937Z,6.23
2022-12-06T20:21:28.455Z,6.15
2022-12-06T20:25:29.859Z,6.34
2022-12-06T20:29:32.517Z,6.38
2022-12-06T20:33:34.074Z,6.36
2022-12-06T20:37:35.728Z,6.38
2022-12-06T20:41:37.236Z,6.39
2022-12-06T20:45:38.659Z,6.00
2022-12-06T20:49:40.083Z,5.85
2022-12-06T20:53:41.557Z,5.55
2022-12-06T20:57:43.019Z,5.47
2022-12-06T21:01:44.533Z,5.44
2022-12-06T21:05:47.900Z,5.57
2022-12-06T21:09:54.091Z,5.48
2022-12-06T21:13:57.171Z,5.55
2022-12-06T21:17:58.631Z,5.53
2022-12-06T21:22:01.777Z,5.88
2022-12-06T21:26:05.439Z,5.90
2022-12-06T21:30:07.495Z,5.98
2022-12-06T21:34:10.810Z,5.70
2022-12-06T21:38:13.079Z,5.66
2022-12-06T21:42:20.911Z,5.73
2022-12-06T21:46:24.722Z,5.91
2022-12-06T21:50:26.340Z,5.72
2022-12-06T21:54:27.776Z,5.93
2022-12-06T21:58:29.357Z,6.15
2022-12-06T22:02:30.977Z,5.92
2022-12-06T22:06:34.427Z,5.95
2022-12-06T22:10:40.151Z,5.94
2022-12-06T22:14:41.548Z,5.99
2022-12-06T22:18:45.849Z,5.73
2022-12-06T22:22:47.696Z,5.85
2022-12-06T22:26:49.513Z,5.81
2022-12-06T22:30:51.091Z,5.74
2022-12-06T22:34:52.595Z,5.52
2022-12-06T22:38:57.018Z,5.53
2022-12-06T22:42:58.529Z,5.53
2022-12-06T22:47:00.082Z,5.66
2022-12-06T22:51:13.382Z,5.63
2022-12-06T22:55:14.804Z,5.57
2022-12-06T22:59:17.207Z,5.37
2022-12-06T23:03:18.754Z,5.46
2022-12-06T23:07:20.190Z,5.46
2022-12-06T23:11:25.596Z,5.24
2022-12-06T23:15:27.030Z,5.44
2022-12-06T23:19:28.514Z,4.94
2022-12-06T23:23:30.510Z,5.24
2022-12-06T23:27:31.907Z,5.23
2022-12-06T23:31:36.175Z,5.19
2022-12-06T23:35:37.656Z,5.17
2022-12-06T23:39:39.058Z,5.24
2022-12-06T23:43:41.410Z,5.26
2022-12-06T23:47:42.812Z,5.21
2022-12-06T23:51:45.187Z,5.16
2022-12-06T23:55:46.615Z,5.29
2022-12-06T23:59:48.034Z,4.99
